createdAt,value
2018-03-09T00:00:20.064Z,2.40
2018-03-09T00:02:48.442Z,2.97
2018-03-09T00:05:16.805Z,2.50
2018-03-09T00:07:45.556Z,3.60
2018-03-09T00:10:13.832Z,3.10
2018-03-09T00:12:42.151Z,4.23
2018-03-09T00:15:10.403Z,2.63
2018-03-09T00:17:38.684Z,3.73
2018-03-09T00:20:06.988Z,2.27
2018-03-09T00:22:35.288Z,2.70
2018-03-09T00:25:04.317Z,3.37
2018-03-09T00:27:32.580Z,2.00
2018-03-09T00:30:00.912Z,4.90
2018-03-09T00:32:29.163Z,3.83
2018-03-09T00:34:57.448Z,3.37
2018-03-09T00:37:25.700Z,3.77
2018-03-09T00:39:54.032Z,5.70
2018-03-09T00:42:22.296Z,3.20
2018-03-09T00:44:50.557Z,3.80
2018-03-09T00:47:18.860Z,2.47
2018-03-09T00:49:47.244Z,3.40
2018-03-09T00:52:15.622Z,5.63
2018-03-09T00:54:43.868Z,3.17
2018-03-09T00:57:12.175Z,4.57
2018-03-09T00:59:40.544Z,4.10
2018-03-09T01:02:09.174Z,5.50
2018-03-09T01:04:38.200Z,5.40
2018-03-09T01:07:06.468Z,2.70
2018-03-09T01:09:34.776Z,3.87
2018-03-09T01:12:03.041Z,7.40
2018-03-09T01:14:31.351Z,4.43
2018-03-09T01:16:59.809Z,6.10
2018-03-09T01:19:28.099Z,4.80
2018-03-09T01:21:56.472Z,6.30
2018-03-09T01:24:24.798Z,6.00
2018-03-09T01:26:53.077Z,6.03
2018-03-09T01:29:21.346Z,6.37
2018-03-09T01:31:50.392Z,5.40
2018-03-09T01:34:18.677Z,6.17
2018-03-09T01:36:47.000Z,6.63
2018-03-09T01:39:15.272Z,6.60
2018-03-09T01:41:44.295Z,8.20
2018-03-09T01:44:12.576Z,7.00
2018-03-09T01:46:40.847Z,6.90
2018-03-09T01:49:09.125Z,4.63
2018-03-09T01:51:37.444Z,7.43
2018-03-09T01:54:05.760Z,8.83
2018-03-09T01:56:34.829Z,8.03
2018-03-09T01:59:03.856Z,7.70
2018-03-09T02:01:32.141Z,5.73
2018-03-09T02:04:00.407Z,6.53
2018-03-09T02:06:28.693Z,7.10
2018-03-09T02:08:56.955Z,8.47
2018-03-09T02:11:25.268Z,5.80
2018-03-09T02:13:53.527Z,7.90
2018-03-09T02:16:21.776Z,8.17
2018-03-09T02:18:50.812Z,6.90
2018-03-09T02:21:19.137Z,6.73
2018-03-09T02:23:47.415Z,5.60
2018-03-09T02:26:15.668Z,8.40
2018-03-09T02:28:43.964Z,7.63
2018-03-09T02:31:13.004Z,11.10
2018-03-09T02:33:41.264Z,6.40
2018-03-09T02:36:09.597Z,7.17
2018-03-09T02:38:37.864Z,7.90
2018-03-09T02:41:06.151Z,11.17
2018-03-09T02:43:34.407Z,6.73
2018-03-09T02:46:02.710Z,8.80
2018-03-09T02:48:30.983Z,9.73
2018-03-09T02:50:59.242Z,6.23
2018-03-09T02:53:27.516Z,8.57
2018-03-09T02:55:55.830Z,10.00
2018-03-09T02:58:24.128Z,9.37
2018-03-09T03:00:54.096Z,7.73
2018-03-09T03:03:22.402Z,9.53
2018-03-09T03:05:50.664Z,10.23
2018-03-09T03:08:18.912Z,8.80
2018-03-09T03:10:47.208Z,9.97
2018-03-09T03:13:15.484Z,10.30
2018-03-09T03:15:43.770Z,9.40
2018-03-09T03:18:12.151Z,9.03
2018-03-09T03:20:40.426Z,7.73
2018-03-09T03:23:08.699Z,10.43
2018-03-09T03:25:37.088Z,9.20
2018-03-09T03:28:05.372Z,7.77
2018-03-09T03:30:33.629Z,9.63
2018-03-09T03:33:01.905Z,9.40
2018-03-09T03:35:30.201Z,9.03
2018-03-09T03:37:58.492Z,7.17
2018-03-09T03:40:26.768Z,9.07
2018-03-09T03:42:55.011Z,8.53
2018-03-09T03:45:23.331Z,7.67
2018-03-09T03:47:51.588Z,10.77
2018-03-09T03:50:19.865Z,6.97
2018-03-09T03:52:48.134Z,10.40
2018-03-09T03:55:16.541Z,9.67
2018-03-09T03:57:45.560Z,8.47
2018-03-09T04:00:13.906Z,7.53
2018-03-09T04:02:42.183Z,8.27
2018-03-09T04:05:10.459Z,8.50
2018-03-09T04:07:38.817Z,10.10
2018-03-09T04:10:07.201Z,16.00
2018-03-09T04:12:35.476Z,9.20
2018-03-09T04:15:04.529Z,8.80
2018-03-09T04:17:32.817Z,8.40
2018-03-09T04:20:01.093Z,10.70
2018-03-09T04:22:29.360Z,12.03
2018-03-09T04:24:57.640Z,7.30
2018-03-09T04:27:25.917Z,12.37
2018-03-09T04:29:54.287Z,7.33
2018-03-09T04:32:22.559Z,7.90
2018-03-09T04:34:50.953Z,8.40
2018-03-09T04:37:19.219Z,8.67
2018-03-09T04:39:47.501Z,7.57
2018-03-09T04:42:15.756Z,9.30
2018-03-09T04:44:44.032Z,8.07
2018-03-09T04:47:12.299Z,9.70
2018-03-09T04:49:40.585Z,7.87
2018-03-09T04:52:08.855Z,7.87
2018-03-09T04:54:37.145Z,13.00
2018-03-09T04:57:05.403Z,8.60
2018-03-09T04:59:33.680Z,9.23
2018-03-09T05:02:01.974Z,9.60
2018-03-09T05:04:30.248Z,8.47
2018-03-09T05:06:58.513Z,8.17
2018-03-09T05:09:26.930Z,7.13
2018-03-09T05:11:55.197Z,8.27
2018-03-09T05:14:23.454Z,8.57
2018-03-09T05:16:51.960Z,7.87
2018-03-09T05:19:20.278Z,10.83
2018-03-09T05:21:49.442Z,7.63
2018-03-09T05:24:17.695Z,14.50
2018-03-09T05:26:45.971Z,9.27
2018-03-09T05:29:14.231Z,6.10
2018-03-09T05:31:42.509Z,8.00
2018-03-09T05:34:10.787Z,8.30
2018-03-09T05:36:39.112Z,6.80
2018-03-09T05:39:07.352Z,8.77
2018-03-09T05:41:35.632Z,10.13
2018-03-09T05:44:03.908Z,7.67
2018-03-09T05:46:32.200Z,9.33
2018-03-09T05:49:00.478Z,8.77
2018-03-09T05:51:28.740Z,13.03
2018-03-09T05:53:57.005Z,10.40
2018-03-09T05:56:25.324Z,7.60
2018-03-09T05:58:53.564Z,5.93
2018-03-09T06:01:21.840Z,9.33
2018-03-09T06:03:50.164Z,11.93
2018-03-09T06:06:18.456Z,9.20
2018-03-09T06:08:46.732Z,9.87
2018-03-09T06:11:15.020Z,10.63
2018-03-09T06:13:43.286Z,8.60
2018-03-09T06:16:11.663Z,8.97
2018-03-09T06:18:39.916Z,8.93
2018-03-09T06:21:08.328Z,10.33
2018-03-09T06:23:36.626Z,10.23
2018-03-09T06:26:05.663Z,8.20
2018-03-09T06:28:33.936Z,11.33
2018-03-09T06:31:02.196Z,8.90
2018-03-09T06:33:30.485Z,10.50
2018-03-09T06:35:58.748Z,9.67
2018-03-09T06:38:27.040Z,8.90
2018-03-09T06:40:55.294Z,10.80
2018-03-09T06:43:24.340Z,8.53
2018-03-09T06:45:52.643Z,10.47
2018-03-09T06:48:20.905Z,12.57
2018-03-09T06:50:49.176Z,10.97
2018-03-09T06:53:17.573Z,9.13
2018-03-09T06:55:46.596Z,7.50
2018-03-09T06:58:14.877Z,9.93
2018-03-09T07:00:43.144Z,10.43
2018-03-09T07:03:12.324Z,12.97
2018-03-09T07:05:41.372Z,9.33
2018-03-09T07:08:09.633Z,10.07
2018-03-09T07:10:37.936Z,8.20
2018-03-09T07:13:06.219Z,14.20
2018-03-09T07:15:34.600Z,13.60
2018-03-09T07:18:02.885Z,13.30
2018-03-09T07:20:31.190Z,11.00
2018-03-09T07:23:00.224Z,14.27
2018-03-09T07:25:28.505Z,10.07
2018-03-09T07:27:56.786Z,10.77
2018-03-09T07:30:25.060Z,8.73
2018-03-09T07:32:53.358Z,11.10
2018-03-09T07:35:21.633Z,9.80
2018-03-09T07:37:49.938Z,11.00
2018-03-09T07:40:18.972Z,16.17
2018-03-09T07:42:47.392Z,14.07
2018-03-09T07:45:15.647Z,10.37
2018-03-09T07:47:43.924Z,14.50
2018-03-09T07:50:12.229Z,11.23
2018-03-09T07:52:40.476Z,12.67
2018-03-09T07:55:08.788Z,9.10
2018-03-09T07:57:37.192Z,11.13
2018-03-09T08:00:06.274Z,13.57
2018-03-09T08:02:34.564Z,10.93
2018-03-09T08:05:03.621Z,11.93
2018-03-09T08:07:32.007Z,12.80
2018-03-09T08:10:00.295Z,10.27
2018-03-09T08:12:30.317Z,14.33
2018-03-09T08:15:00.117Z,10.57
2018-03-09T08:17:28.484Z,13.60
2018-03-09T08:19:57.573Z,12.30
2018-03-09T08:22:25.862Z,11.37
2018-03-09T08:24:54.169Z,13.57
2018-03-09T08:27:23.976Z,12.23
2018-03-09T08:29:52.340Z,14.30
2018-03-09T08:32:20.633Z,14.73
2018-03-09T08:34:50.472Z,11.00
2018-03-09T08:37:19.625Z,10.17
2018-03-09T08:39:47.942Z,10.87
2018-03-09T08:42:16.993Z,10.80
2018-03-09T08:44:45.279Z,13.00
2018-03-09T08:47:13.582Z,8.40
2018-03-09T08:49:42.632Z,13.47
2018-03-09T08:52:10.957Z,13.83
2018-03-09T08:54:40.252Z,8.13
2018-03-09T08:57:09.293Z,10.23
2018-03-09T08:59:37.598Z,11.40
2018-03-09T09:02:06.056Z,11.40
2018-03-09T09:04:34.376Z,8.80
2018-03-09T09:07:02.674Z,10.87
2018-03-09T09:09:31.723Z,9.60
2018-03-09T09:12:00.025Z,11.80
2018-03-09T09:14:28.335Z,10.27
2018-03-09T09:16:57.414Z,10.80
2018-03-09T09:19:25.788Z,10.70
2018-03-09T09:21:55.615Z,13.20
2018-03-09T09:24:23.944Z,12.67
2018-03-09T09:26:52.226Z,8.77
2018-03-09T09:29:20.624Z,10.93
2018-03-09T09:31:49.199Z,9.80
2018-03-09T09:34:17.526Z,10.73
2018-03-09T09:36:46.589Z,11.30
2018-03-09T09:39:14.957Z,11.57
2018-03-09T09:41:43.254Z,9.07
2018-03-09T09:44:11.550Z,11.40
2018-03-09T09:46:40.620Z,10.03
2018-03-09T09:49:09.725Z,8.50
2018-03-09T09:51:39.538Z,12.73
2018-03-09T09:54:09.328Z,14.73
2018-03-09T09:56:37.633Z,12.10
2018-03-09T09:59:06.690Z,12.53
2018-03-09T10:01:35.041Z,10.77
2018-03-09T10:04:03.333Z,12.33
2018-03-09T10:06:31.658Z,11.20
2018-03-09T10:09:00.089Z,9.30
2018-03-09T10:11:29.174Z,12.20
2018-03-09T10:13:58.203Z,16.10
2018-03-09T10:16:26.501Z,12.97
2018-03-09T10:18:55.546Z,13.67
2018-03-09T10:21:23.849Z,13.90
2018-03-09T10:23:52.136Z,10.93
2018-03-09T10:26:20.545Z,14.67
2018-03-09T10:28:49.608Z,13.43
2018-03-09T10:31:17.923Z,16.13
2018-03-09T10:33:47.006Z,14.93
2018-03-09T10:36:16.119Z,16.87
2018-03-09T10:38:45.221Z,14.97
2018-03-09T10:41:14.277Z,16.07
2018-03-09T10:43:42.685Z,18.10
2018-03-09T10:46:11.761Z,15.47
2018-03-09T10:48:40.048Z,14.50
2018-03-09T10:51:08.455Z,11.83
2018-03-09T10:53:37.628Z,13.70
2018-03-09T10:56:06.697Z,15.70
2018-03-09T10:58:35.136Z,17.90
2018-03-09T11:01:03.420Z,16.30
2018-03-09T11:03:31.764Z,15.10
2018-03-09T11:06:00.042Z,14.83
2018-03-09T11:08:28.332Z,11.47
2018-03-09T11:10:57.426Z,12.70
2018-03-09T11:13:26.505Z,12.30
2018-03-09T11:15:54.853Z,12.53
2018-03-09T11:18:23.139Z,11.40
2018-03-09T11:20:51.461Z,11.63
2018-03-09T11:23:20.537Z,11.23
2018-03-09T11:25:49.577Z,13.23
2018-03-09T11:28:17.905Z,11.90
2018-03-09T11:30:46.291Z,11.93
2018-03-09T11:33:14.569Z,10.60
2018-03-09T11:35:43.645Z,20.60
2018-03-09T11:38:12.017Z,11.43
2018-03-09T11:40:40.360Z,11.90
2018-03-09T11:43:08.636Z,13.67
2018-03-09T11:45:36.920Z,10.97
2018-03-09T11:48:05.256Z,12.20
2018-03-09T11:53:10.610Z,10.63
2018-03-09T11:55:38.889Z,11.80
2018-03-09T11:58:07.177Z,16.17
2018-03-09T12:00:35.473Z,17.77
2018-03-09T12:03:03.836Z,9.87
2018-03-09T12:05:32.947Z,9.70
2018-03-09T12:08:02.002Z,11.80
2018-03-09T12:10:30.474Z,10.77
2018-03-09T12:12:58.893Z,11.63
2018-03-09T12:15:28.050Z,12.13
2018-03-09T12:17:56.369Z,10.97
2018-03-09T12:20:25.428Z,11.77
2018-03-09T12:22:53.716Z,12.97
2018-03-09T12:25:23.536Z,10.60
2018-03-09T12:27:52.592Z,11.67
2018-03-09T12:30:20.922Z,17.23
2018-03-09T12:32:49.984Z,10.30
2018-03-09T12:35:18.267Z,9.77
2018-03-09T12:37:46.559Z,9.00
2018-03-09T12:40:15.605Z,10.60
2018-03-09T12:42:43.945Z,14.57
2018-03-09T12:45:12.251Z,9.73
2018-03-09T12:47:40.541Z,11.30
2018-03-09T12:50:09.463Z,9.87
2018-03-09T12:52:37.839Z,9.40
2018-03-09T12:55:06.137Z,11.10
2018-03-09T12:57:34.429Z,12.50
2018-03-09T13:00:03.526Z,11.40
2018-03-09T13:02:31.833Z,12.70
2018-03-09T13:05:00.185Z,9.33
2018-03-09T13:07:29.245Z,9.63
2018-03-09T13:09:57.561Z,10.10
2018-03-09T13:12:27.577Z,12.60
2018-03-09T13:15:02.247Z,10.13
2018-03-09T13:17:35.560Z,9.10
2018-03-09T13:20:04.055Z,11.93
2018-03-09T13:22:33.823Z,10.37
2018-03-09T13:25:02.238Z,10.60
2018-03-09T13:27:30.619Z,14.00
2018-03-09T13:29:58.879Z,10.00
2018-03-09T13:32:27.374Z,10.57
2018-03-09T13:34:55.632Z,22.17
2018-03-09T13:37:23.943Z,10.13
2018-03-09T13:39:52.212Z,10.63
2018-03-09T13:42:20.472Z,9.00
2018-03-09T13:44:48.856Z,10.93
2018-03-09T13:47:17.154Z,13.43
2018-03-09T13:49:45.423Z,11.27
2018-03-09T13:52:13.707Z,9.27
2018-03-09T13:54:42.755Z,11.20
2018-03-09T13:57:11.039Z,10.03
2018-03-09T13:59:39.447Z,10.07
2018-03-09T14:02:07.825Z,11.03
2018-03-09T14:04:36.207Z,9.00
2018-03-09T14:07:05.398Z,9.43
2018-03-09T14:09:33.694Z,8.20
2018-03-09T14:12:03.460Z,9.93
2018-03-09T14:14:31.741Z,11.93
2018-03-09T14:17:00.008Z,10.43
2018-03-09T14:19:28.263Z,9.93
2018-03-09T14:21:57.308Z,10.90
2018-03-09T14:24:25.591Z,10.53
2018-03-09T14:26:53.840Z,9.10
2018-03-09T14:29:22.119Z,8.83
2018-03-09T14:31:50.365Z,13.00
2018-03-09T14:34:19.431Z,8.50
2018-03-09T14:36:47.700Z,9.00
2018-03-09T14:39:15.977Z,9.60
2018-03-09T14:41:44.247Z,8.30
2018-03-09T14:44:12.516Z,10.70
2018-03-09T14:46:40.801Z,11.30
2018-03-09T14:49:09.085Z,8.00
2018-03-09T14:51:37.352Z,9.97
2018-03-09T14:54:05.669Z,8.67
2018-03-09T14:56:34.695Z,9.33
2018-03-09T14:59:03.012Z,10.80
2018-03-09T15:01:31.273Z,9.20
2018-03-09T15:03:59.586Z,8.33
2018-03-09T15:06:27.946Z,11.40
2018-03-09T15:08:56.212Z,7.23
2018-03-09T15:11:24.471Z,8.83
2018-03-09T15:13:52.767Z,8.53
2018-03-09T15:16:21.024Z,9.70
2018-03-09T15:18:49.326Z,10.13
2018-03-09T15:21:17.617Z,8.00
2018-03-09T15:23:45.891Z,9.03
2018-03-09T15:26:15.672Z,9.33
2018-03-09T15:28:43.961Z,9.57
2018-03-09T15:31:12.231Z,10.00
2018-03-09T15:33:43.104Z,9.57
2018-03-09T15:36:14.092Z,8.30
2018-03-09T15:38:42.347Z,12.10
2018-03-09T15:41:11.491Z,14.30
2018-03-09T15:43:39.758Z,9.87
2018-03-09T15:46:08.037Z,9.67
2018-03-09T15:48:36.323Z,11.23
2018-03-09T15:51:04.739Z,9.80
2018-03-09T15:53:33.044Z,8.90
2018-03-09T15:56:01.364Z,8.90
2018-03-09T15:58:29.612Z,7.93
2018-03-09T16:00:57.863Z,9.80
2018-03-09T16:03:26.918Z,9.20
2018-03-09T16:05:55.190Z,10.97
2018-03-09T16:08:23.492Z,9.00
2018-03-09T16:10:53.359Z,9.47
2018-03-09T16:13:21.635Z,8.07
2018-03-09T16:15:49.883Z,14.37
2018-03-09T16:18:18.151Z,11.00
2018-03-09T16:20:46.424Z,9.43
2018-03-09T16:23:14.843Z,11.60
2018-03-09T16:25:43.394Z,9.60
2018-03-09T16:28:11.674Z,10.63
2018-03-09T16:30:40.059Z,9.63
2018-03-09T16:33:08.315Z,11.47
2018-03-09T16:35:36.575Z,11.87
2018-03-09T16:38:04.882Z,9.10
2018-03-09T16:40:33.143Z,8.97
2018-03-09T16:43:02.216Z,11.90
2018-03-09T16:45:30.604Z,12.37
2018-03-09T16:47:59.655Z,11.23
2018-03-09T16:50:27.967Z,8.67
2018-03-09T16:52:56.216Z,9.53
2018-03-09T16:55:24.515Z,11.63
2018-03-09T16:57:52.771Z,9.13
2018-03-09T17:00:21.044Z,9.57
2018-03-09T17:02:49.344Z,12.43
2018-03-09T17:05:17.629Z,9.90
2018-03-09T17:07:45.902Z,13.47
2018-03-09T17:10:14.179Z,10.60
2018-03-09T17:12:42.552Z,8.37
2018-03-09T17:15:11.085Z,10.60
2018-03-09T17:17:40.240Z,12.60
2018-03-09T17:20:08.503Z,11.20
2018-03-09T17:22:36.991Z,13.50
2018-03-09T17:25:05.252Z,13.80
2018-03-09T17:27:33.556Z,13.83
2018-03-09T17:30:02.592Z,10.93
2018-03-09T17:32:30.943Z,11.57
2018-03-09T17:34:59.301Z,9.20
2018-03-09T17:37:27.585Z,12.07
2018-03-09T17:39:55.965Z,9.40
2018-03-09T17:42:24.240Z,12.80
2018-03-09T17:44:52.712Z,13.07
2018-03-09T17:47:21.107Z,10.60
2018-03-09T17:49:49.368Z,11.50
2018-03-09T17:52:17.656Z,9.97
2018-03-09T17:54:45.916Z,13.50
2018-03-09T17:57:14.212Z,17.33
2018-03-09T17:59:42.560Z,8.73
2018-03-09T18:02:10.856Z,13.20
2018-03-09T18:04:39.136Z,10.27
2018-03-09T18:07:07.524Z,12.90
2018-03-09T18:09:35.918Z,12.17
2018-03-09T18:12:04.951Z,13.33
2018-03-09T18:14:33.274Z,11.40
2018-03-09T18:17:02.257Z,13.00
2018-03-09T18:19:30.545Z,12.13
2018-03-09T18:21:58.842Z,12.90
2018-03-09T18:24:28.626Z,11.77
2018-03-09T18:26:56.905Z,9.40
2018-03-09T18:29:25.213Z,16.87
2018-03-09T18:31:54.290Z,13.30
2018-03-09T18:34:22.613Z,11.37
2018-03-09T18:36:51.640Z,13.87
2018-03-09T18:39:19.947Z,12.77
2018-03-09T18:41:48.204Z,16.27
2018-03-09T18:44:16.469Z,12.93
2018-03-09T18:46:44.789Z,15.43
2018-03-09T18:49:13.061Z,14.87
2018-03-09T18:51:41.354Z,16.53
2018-03-09T18:54:10.380Z,11.50
2018-03-09T18:56:39.944Z,13.83
2018-03-09T18:59:08.236Z,11.13
2018-03-09T19:01:38.023Z,13.43
2018-03-09T19:04:06.397Z,13.57
2018-03-09T19:06:34.650Z,15.37
2018-03-09T19:09:02.935Z,11.67
2018-03-09T19:11:31.216Z,15.70
2018-03-09T19:13:59.516Z,14.10
2018-03-09T19:16:27.785Z,13.70
2018-03-09T19:18:56.962Z,15.50
2018-03-09T19:21:25.264Z,14.90
2018-03-09T19:23:53.643Z,21.17
2018-03-09T19:26:22.027Z,14.57
2018-03-09T19:28:50.506Z,19.03
2018-03-09T19:31:19.711Z,18.47
2018-03-09T19:33:48.087Z,14.10
2018-03-09T19:36:16.469Z,15.40
2018-03-09T19:38:44.787Z,17.93
2018-03-09T19:41:13.796Z,21.53
2018-03-09T19:43:42.112Z,16.50
2018-03-09T19:46:10.379Z,22.57
2018-03-09T19:48:38.774Z,16.47
2018-03-09T19:51:07.033Z,19.63
2018-03-09T19:53:35.327Z,16.97
2018-03-09T19:56:03.616Z,17.63
2018-03-09T19:58:31.888Z,18.47
2018-03-09T20:01:00.259Z,16.13
2018-03-09T20:03:28.536Z,17.20
2018-03-09T20:05:56.791Z,16.10
2018-03-09T20:08:25.088Z,18.10
2018-03-09T20:10:53.478Z,23.40
2018-03-09T20:13:21.839Z,19.67
2018-03-09T20:15:50.125Z,19.33
2018-03-09T20:18:18.556Z,21.97
2018-03-09T20:20:46.817Z,22.97
2018-03-09T20:23:15.891Z,18.77
2018-03-09T20:25:45.676Z,21.63
2018-03-09T20:28:13.968Z,21.60
2018-03-09T20:30:42.249Z,21.33
2018-03-09T20:33:10.541Z,19.33
2018-03-09T20:35:38.827Z,23.40
2018-03-09T20:38:08.621Z,22.67
2018-03-09T20:40:36.900Z,26.00
2018-03-09T20:43:05.176Z,19.77
2018-03-09T20:45:33.462Z,22.73
2018-03-09T20:48:02.568Z,17.63
2018-03-09T20:50:31.587Z,19.53
2018-03-09T20:52:59.858Z,21.63
2018-03-09T20:55:28.130Z,24.43
2018-03-09T20:57:57.185Z,21.77
2018-03-09T21:00:25.564Z,21.50
2018-03-09T21:02:55.490Z,21.50
2018-03-09T21:05:25.512Z,24.03
2018-03-09T21:07:53.990Z,25.50
2018-03-09T21:10:22.260Z,24.10
2018-03-09T21:12:50.744Z,28.50
2018-03-09T21:15:19.184Z,18.80
2018-03-09T21:17:47.439Z,22.70
2018-03-09T21:20:16.599Z,20.43
2018-03-09T21:22:44.870Z,22.87
2018-03-09T21:25:13.259Z,21.23
2018-03-09T21:27:41.636Z,22.43
2018-03-09T21:30:10.014Z,23.20
2018-03-09T21:32:38.303Z,28.27
2018-03-09T21:35:06.619Z,27.93
2018-03-09T21:37:34.883Z,23.60
2018-03-09T21:40:03.937Z,43.17
2018-03-09T21:42:32.257Z,44.40
2018-03-09T21:45:01.295Z,39.57
2018-03-09T21:47:29.639Z,48.23
2018-03-09T21:49:57.910Z,49.00
2018-03-09T21:52:26.966Z,40.63
2018-03-09T21:54:55.224Z,39.80
2018-03-09T21:57:23.514Z,40.50
2018-03-09T21:59:51.899Z,31.93
2018-03-09T22:02:20.503Z,34.73
2018-03-09T22:04:48.781Z,32.00
2018-03-09T22:07:17.840Z,31.63
2018-03-09T22:09:46.189Z,36.70
2018-03-09T22:12:14.426Z,28.63
2018-03-09T22:14:42.691Z,30.20
2018-03-09T22:17:11.080Z,25.30
2018-03-09T22:19:39.347Z,25.47
2018-03-09T22:22:07.611Z,24.40
2018-03-09T22:24:35.870Z,23.87
2018-03-09T22:27:04.177Z,18.53
2018-03-09T22:29:32.427Z,19.30
2018-03-09T22:32:02.944Z,20.53
2018-03-09T22:34:31.264Z,21.27
2018-03-09T22:36:59.535Z,20.43
2018-03-09T22:39:27.827Z,22.90
2018-03-09T22:41:57.602Z,20.57
2018-03-09T22:44:25.859Z,18.77
2018-03-09T22:46:54.130Z,20.27
2018-03-09T22:49:22.411Z,20.00
2018-03-09T22:51:50.740Z,17.13
2018-03-09T22:54:19.004Z,20.40
2018-03-09T22:56:47.271Z,19.30
2018-03-09T22:59:15.587Z,19.57
2018-03-09T23:01:43.841Z,19.00
2018-03-09T23:04:12.152Z,22.50
2018-03-09T23:06:41.436Z,23.97
2018-03-09T23:09:10.636Z,18.73
2018-03-09T23:11:38.908Z,18.53
2018-03-09T23:14:07.184Z,22.63
2018-03-09T23:16:35.496Z,19.50
2018-03-09T23:19:04.548Z,20.17
2018-03-09T23:21:32.844Z,22.90
2018-03-09T23:24:01.878Z,19.90
2018-03-09T23:26:30.222Z,28.70
2018-03-09T23:28:58.508Z,24.80
2018-03-09T23:31:27.573Z,21.60
2018-03-09T23:33:55.851Z,23.97
2018-03-09T23:36:24.159Z,22.03
2018-03-09T23:38:53.223Z,21.97
2018-03-09T23:41:21.486Z,24.37
2018-03-09T23:43:49.810Z,23.10
2018-03-09T23:46:18.851Z,27.87
2018-03-09T23:48:47.190Z,22.40
2018-03-09T23:51:16.239Z,23.90
2018-03-09T23:53:44.627Z,22.37
2018-03-09T23:56:12.916Z,22.03
2018-03-09T23:58:41.191Z,23.33
